createdAt,value
2024-03-03T00:01:53.490Z,5.25
2024-03-03T00:11:57.691Z,4.93
2024-03-03T00:22:01.130Z,4.80
2024-03-03T00:32:05.881Z,4.88
2024-03-03T00:42:08.842Z,4.78
2024-03-03T00:52:13.054Z,5.20
2024-03-03T01:02:16.106Z,5.03
2024-03-03T01:12:20.312Z,5.28
2024-03-03T01:22:23.080Z,5.65
2024-03-03T01:32:28.570Z,5.05
2024-03-03T01:42:31.869Z,6.78
2024-03-03T01:52:36.086Z,5.90
2024-03-03T02:02:40.620Z,6.00
2024-03-03T02:12:46.775Z,6.30
2024-03-03T02:22:50.978Z,6.68
2024-03-03T02:32:53.893Z,7.90
2024-03-03T02:42:58.080Z,6.70
2024-03-03T02:53:00.897Z,8.70
2024-03-03T03:03:05.340Z,9.07
2024-03-03T03:13:09.209Z,9.68
2024-03-03T03:23:13.464Z,9.57
2024-03-03T03:33:16.470Z,9.75
2024-03-03T03:43:20.706Z,10.48
2024-03-03T03:53:23.780Z,9.15
2024-03-03T04:03:27.962Z,11.02
2024-03-03T04:13:30.873Z,11.40
2024-03-03T04:23:35.304Z,10.48
2024-03-03T04:33:38.243Z,9.15
2024-03-03T04:43:42.481Z,9.90
2024-03-03T04:53:45.782Z,11.73
2024-03-03T05:03:50.090Z,12.02
2024-03-03T05:13:52.917Z,11.60
2024-03-03T05:23:57.054Z,12.38
2024-03-03T05:33:59.824Z,11.02
2024-03-03T05:44:05.525Z,11.88
2024-03-03T05:54:08.294Z,12.68
2024-03-03T06:04:12.438Z,11.82
2024-03-03T06:14:16.227Z,12.68
2024-03-03T06:24:20.676Z,11.20
2024-03-03T06:34:23.612Z,12.27
2024-03-03T06:44:29.767Z,12.55
2024-03-03T06:54:33.831Z,12.35
2024-03-03T07:04:38.272Z,13.40
2024-03-03T07:14:43.398Z,12.20
2024-03-03T07:24:48.492Z,12.95
2024-03-03T07:34:51.724Z,12.80
2024-03-03T07:44:55.927Z,14.45
2024-03-03T07:54:58.982Z,12.95
2024-03-03T08:05:05.344Z,13.05
2024-03-03T08:15:08.613Z,14.05
2024-03-03T08:25:15.593Z,12.95
2024-03-03T08:35:18.367Z,13.45
2024-03-03T08:45:22.522Z,13.52
2024-03-03T08:55:25.433Z,12.98
2024-03-03T09:05:29.828Z,12.35
2024-03-03T09:15:32.850Z,12.63
2024-03-03T09:25:37.285Z,12.15
2024-03-03T09:35:40.416Z,11.88
2024-03-03T09:45:45.959Z,11.68
2024-03-03T09:55:49.644Z,11.27
2024-03-03T10:05:57.141Z,11.30
2024-03-03T10:16:01.585Z,9.85
2024-03-03T10:26:06.071Z,10.55
2024-03-03T10:36:12.162Z,10.70
2024-03-03T10:46:17.547Z,10.68
2024-03-03T10:56:21.065Z,10.02
2024-03-03T11:06:25.914Z,10.10
2024-03-03T11:16:30.691Z,10.50
2024-03-03T11:26:43.041Z,10.15
2024-03-03T11:36:47.540Z,9.80
2024-03-03T11:46:52.047Z,9.95
2024-03-03T11:56:55.143Z,9.93
2024-03-03T12:06:59.381Z,9.57
2024-03-03T12:17:02.242Z,9.63
2024-03-03T12:27:06.587Z,9.85
2024-03-03T12:37:09.566Z,10.02
2024-03-03T12:47:16.191Z,10.50
2024-03-03T12:57:23.434Z,11.50
2024-03-03T13:07:27.700Z,12.07
2024-03-03T13:17:30.544Z,10.45
2024-03-03T13:27:35.926Z,11.30
2024-03-03T13:37:39.636Z,12.20
2024-03-03T13:47:43.785Z,13.27
2024-03-03T13:57:46.599Z,13.88
2024-03-03T14:07:51.118Z,14.20
2024-03-03T14:17:54.033Z,14.52
2024-03-03T14:28:05.139Z,16.60
2024-03-03T14:38:15.073Z,15.90
2024-03-03T14:48:19.454Z,15.68
2024-03-03T14:58:23.306Z,16.55
2024-03-03T15:08:27.562Z,14.77
2024-03-03T15:18:30.304Z,15.48
2024-03-03T15:28:34.538Z,16.25
2024-03-03T15:38:37.528Z,17.50
2024-03-03T15:48:41.974Z,17.35
2024-03-03T15:58:45.444Z,17.58
2024-03-03T16:08:50.168Z,16.23
2024-03-03T16:18:52.913Z,17.83
2024-03-03T16:28:57.018Z,18.55
2024-03-03T16:38:59.932Z,17.67
2024-03-03T16:49:04.148Z,17.83
2024-03-03T16:59:07.090Z,17.40
2024-03-03T17:09:12.231Z,18.13
2024-03-03T17:19:15.134Z,21.45
2024-03-03T17:29:19.323Z,19.58
2024-03-03T17:39:22.078Z,21.05
2024-03-03T17:49:26.236Z,22.67
2024-03-03T17:59:29.068Z,20.55
2024-03-03T18:09:33.231Z,18.58
2024-03-03T18:19:36.691Z,17.98
2024-03-03T18:29:40.814Z,17.52
2024-03-03T18:39:43.590Z,17.63
2024-03-03T18:49:47.766Z,18.52
2024-03-03T18:59:51.059Z,16.75
2024-03-03T19:09:55.213Z,18.48
2024-03-03T19:19:58.140Z,17.27
2024-03-03T19:30:02.385Z,16.63
2024-03-03T19:40:05.778Z,15.25
2024-03-03T19:50:11.525Z,16.13
2024-03-03T20:00:16.519Z,14.80
2024-03-03T20:10:22.309Z,15.27
2024-03-03T20:20:25.666Z,15.43
2024-03-03T20:30:29.877Z,14.57
2024-03-03T20:40:33.164Z,13.73
2024-03-03T20:50:37.734Z,13.60
2024-03-03T21:00:40.535Z,14.63
2024-03-03T21:10:44.906Z,14.23
2024-03-03T21:20:47.815Z,13.95
2024-03-03T21:30:52.045Z,14.18
2024-03-03T21:40:54.939Z,15.07
2024-03-03T21:50:59.099Z,15.05
2024-03-03T22:01:02.285Z,15.48
2024-03-03T22:11:06.691Z,14.60
2024-03-03T22:21:09.523Z,14.30
2024-03-03T22:31:13.876Z,15.38
2024-03-03T22:41:17.271Z,15.02
2024-03-03T22:51:21.825Z,14.10
2024-03-03T23:01:25.682Z,13.65
2024-03-03T23:11:30.433Z,13.75
2024-03-03T23:21:33.352Z,13.98
2024-03-03T23:31:37.559Z,15.15
2024-03-03T23:41:40.764Z,15.38
2024-03-03T23:51:44.985Z,15.95
